createdAt,value
2017-09-06T00:02:11.150Z,6
2017-09-06T00:12:11.122Z,7
2017-09-06T00:22:11.197Z,7
2017-09-06T00:32:11.138Z,7
2017-09-06T00:42:11.077Z,7
2017-09-06T00:52:11.155Z,6
2017-09-06T01:02:11.180Z,7
2017-09-06T01:12:11.109Z,7
2017-09-06T01:22:11.130Z,8
2017-09-06T01:32:11.098Z,7
2017-09-06T01:42:11.178Z,9
2017-09-06T01:52:11.111Z,8
2017-09-06T02:02:11.042Z,9
2017-09-06T02:12:11.213Z,10
2017-09-06T02:22:11.149Z,11
2017-09-06T02:32:11.207Z,10
2017-09-06T02:42:11.302Z,10
2017-09-06T02:52:11.121Z,12
2017-09-06T03:02:11.157Z,13
2017-09-06T03:12:11.167Z,15
2017-09-06T03:22:11.172Z,15
2017-09-06T03:32:11.138Z,16
2017-09-06T03:42:11.121Z,14
2017-09-06T03:52:11.189Z,14
2017-09-06T04:02:11.120Z,14
2017-09-06T04:12:11.220Z,12
2017-09-06T04:22:11.223Z,12
2017-09-06T04:32:11.127Z,11
2017-09-06T04:42:11.167Z,9
2017-09-06T04:52:11.081Z,8
2017-09-06T05:02:11.101Z,7
2017-09-06T05:12:11.137Z,6
2017-09-06T05:22:11.141Z,7
2017-09-06T05:32:11.216Z,6
2017-09-06T05:42:11.184Z,6
2017-09-06T05:52:11.166Z,5
2017-09-06T06:02:11.217Z,6
2017-09-06T06:12:13.863Z,5
2017-09-06T06:22:11.221Z,5
2017-09-06T06:32:11.044Z,5
2017-09-06T06:42:11.091Z,6
2017-09-06T06:52:11.071Z,6
2017-09-06T07:02:11.036Z,6
2017-09-06T07:12:11.098Z,6
2017-09-06T07:22:11.138Z,6
2017-09-06T07:32:11.136Z,6
2017-09-06T07:42:11.146Z,8
2017-09-06T07:52:11.104Z,9
2017-09-06T08:02:11.093Z,7
2017-09-06T08:12:11.111Z,4
2017-09-06T08:22:11.149Z,5
2017-09-06T08:32:11.103Z,4
2017-09-06T08:42:11.098Z,2
2017-09-06T08:52:11.121Z,1
2017-09-06T09:02:11.147Z,0
2017-09-06T09:12:11.127Z,1
2017-09-06T09:22:11.171Z,3
2017-09-06T09:32:11.677Z,2
2017-09-06T09:42:11.105Z,2
2017-09-06T09:52:11.102Z,4
2017-09-06T10:02:11.172Z,5
2017-09-06T10:12:11.144Z,3
2017-09-06T10:22:11.118Z,3
2017-09-06T10:32:11.147Z,3
2017-09-06T10:42:11.283Z,3
2017-09-06T10:52:11.182Z,3
2017-09-06T11:02:11.214Z,3
2017-09-06T11:12:11.222Z,4
2017-09-06T11:22:11.145Z,3
2017-09-06T11:32:11.278Z,2
2017-09-06T11:42:11.220Z,3
2017-09-06T11:52:11.169Z,2
2017-09-06T12:02:11.172Z,3
2017-09-06T12:12:11.501Z,3
2017-09-06T12:22:11.397Z,2
2017-09-06T12:32:11.162Z,3
2017-09-06T12:42:11.092Z,3
2017-09-06T12:52:11.200Z,3
2017-09-06T13:02:11.253Z,3
2017-09-06T13:12:11.348Z,2
2017-09-06T13:22:11.112Z,2
2017-09-06T13:32:11.171Z,2
2017-09-06T13:42:11.236Z,2
2017-09-06T13:52:11.155Z,3
2017-09-06T14:02:11.154Z,3
2017-09-06T14:12:11.280Z,4
2017-09-06T14:22:11.193Z,3
2017-09-06T14:32:11.229Z,2
2017-09-06T14:42:12.236Z,2
2017-09-06T14:52:11.191Z,2
2017-09-06T15:02:11.222Z,3
2017-09-06T15:12:11.262Z,3
2017-09-06T15:22:11.255Z,2
2017-09-06T15:32:11.307Z,2
2017-09-06T15:42:11.240Z,2
2017-09-06T15:52:11.134Z,2
2017-09-06T16:02:11.275Z,4
2017-09-06T16:12:11.265Z,2
2017-09-06T16:22:11.248Z,2
2017-09-06T16:32:11.143Z,2
2017-09-06T16:42:11.424Z,2
2017-09-06T16:52:11.120Z,3
2017-09-06T17:02:11.373Z,2
2017-09-06T17:12:11.171Z,3
2017-09-06T17:22:11.239Z,2
2017-09-06T17:32:11.242Z,3
2017-09-06T17:42:11.188Z,3
2017-09-06T17:52:11.394Z,4
2017-09-06T18:02:11.120Z,4
2017-09-06T18:12:11.158Z,3
2017-09-06T18:22:11.248Z,3
2017-09-06T18:32:11.192Z,4
2017-09-06T18:42:11.136Z,3
2017-09-06T18:52:11.165Z,4
2017-09-06T19:02:11.210Z,5
2017-09-06T19:12:11.297Z,4
2017-09-06T19:22:11.121Z,4
2017-09-06T19:32:11.304Z,4
2017-09-06T19:42:11.386Z,4
2017-09-06T19:52:11.367Z,5
2017-09-06T20:02:11.460Z,4
2017-09-06T20:12:12.603Z,4
2017-09-06T20:22:11.256Z,4
2017-09-06T20:32:11.178Z,4
2017-09-06T20:42:11.201Z,4
2017-09-06T20:52:11.585Z,3
2017-09-06T21:02:11.223Z,4
2017-09-06T21:12:11.257Z,4
2017-09-06T21:22:11.277Z,4
2017-09-06T21:32:11.433Z,4
2017-09-06T21:42:11.183Z,4
2017-09-06T21:52:11.297Z,5
2017-09-06T22:02:11.204Z,4
2017-09-06T22:12:11.969Z,6
2017-09-06T22:22:12.216Z,5
2017-09-06T22:32:11.421Z,4
2017-09-06T22:42:12.197Z,5
2017-09-06T22:52:11.274Z,4
2017-09-06T23:02:13.137Z,4
2017-09-06T23:12:11.199Z,5
2017-09-06T23:22:14.622Z,4
2017-09-06T23:32:12.232Z,6
2017-09-06T23:42:17.247Z,6
2017-09-06T23:52:11.187Z,7
